createdAt,value
2019-03-15T00:02:42.844Z,15.47
2019-03-15T00:05:11.812Z,25.03
2019-03-15T00:08:00.022Z,36.73
2019-03-15T00:10:48.164Z,49.87
2019-03-15T00:13:36.222Z,32.70
2019-03-15T00:16:45.112Z,15.63
2019-03-15T00:19:33.297Z,11.27
2019-03-15T00:22:13.758Z,54.77
2019-03-15T00:24:54.875Z,18.67
2019-03-15T00:27:35.711Z,5.97
2019-03-15T00:30:17.072Z,8.70
2019-03-15T00:32:58.578Z,7.13
2019-03-15T00:35:39.868Z,7.33
2019-03-15T00:38:20.968Z,4.27
2019-03-15T00:41:01.719Z,5.57
2019-03-15T00:43:42.586Z,18.23
2019-03-15T00:46:23.297Z,8.67
2019-03-15T00:49:04.085Z,9.03
2019-03-15T00:51:44.907Z,3.10
2019-03-15T00:54:25.548Z,8.67
2019-03-15T00:57:06.472Z,13.00
2019-03-15T00:59:47.101Z,15.40
2019-03-15T01:02:27.729Z,4.90
2019-03-15T01:05:08.472Z,4.13
2019-03-15T01:07:49.129Z,7.50
2019-03-15T01:10:29.715Z,8.83
2019-03-15T01:13:10.709Z,4.63
2019-03-15T01:15:51.640Z,3.90
2019-03-15T01:18:32.168Z,6.13
2019-03-15T01:21:12.928Z,5.53
2019-03-15T01:23:54.346Z,2.80
2019-03-15T01:26:35.704Z,7.10
2019-03-15T01:29:16.582Z,4.33
2019-03-15T01:31:57.537Z,8.10
2019-03-15T01:34:38.080Z,8.80
2019-03-15T01:37:18.906Z,6.53
2019-03-15T01:40:00.819Z,8.53
2019-03-15T01:42:30.144Z,6.67
2019-03-15T01:44:58.928Z,6.93
2019-03-15T01:47:47.077Z,9.93
2019-03-15T01:50:35.213Z,8.23
2019-03-15T01:53:23.569Z,7.33
2019-03-15T01:56:13.061Z,10.33
2019-03-15T01:59:01.125Z,8.57
2019-03-15T02:01:49.257Z,7.37
2019-03-15T02:04:37.378Z,6.70
2019-03-15T02:07:25.455Z,4.77
2019-03-15T02:10:13.507Z,7.77
2019-03-15T02:13:01.660Z,13.47
2019-03-15T02:15:49.710Z,8.00
2019-03-15T02:18:37.859Z,6.70
2019-03-15T02:21:19.154Z,11.13
2019-03-15T02:23:59.854Z,6.43
2019-03-15T02:26:40.383Z,7.17
2019-03-15T02:29:21.133Z,6.73
2019-03-15T02:32:01.525Z,11.87
2019-03-15T02:34:42.162Z,9.93
2019-03-15T02:37:22.647Z,7.47
2019-03-15T02:40:03.430Z,12.57
2019-03-15T02:42:43.986Z,10.70
2019-03-15T02:45:24.699Z,9.27
2019-03-15T02:48:05.254Z,10.07
2019-03-15T02:50:46.477Z,10.57
2019-03-15T02:53:27.229Z,12.50
2019-03-15T02:56:08.494Z,10.00
2019-03-15T03:02:02.207Z,9.00
2019-03-15T03:04:42.681Z,10.40
2019-03-15T03:07:23.347Z,8.07
2019-03-15T03:10:03.889Z,9.30
2019-03-15T03:12:32.917Z,14.53
2019-03-15T03:15:21.033Z,9.43
2019-03-15T03:18:09.101Z,11.93
2019-03-15T03:20:57.203Z,11.83
2019-03-15T03:23:37.796Z,12.00
2019-03-15T03:26:18.419Z,8.50
2019-03-15T03:28:59.230Z,9.30
2019-03-15T03:31:39.910Z,8.67
2019-03-15T03:34:20.712Z,10.37
2019-03-15T03:37:01.268Z,12.10
2019-03-15T03:39:41.994Z,10.47
2019-03-15T03:42:22.605Z,16.10
2019-03-15T03:45:03.228Z,12.00
2019-03-15T03:47:43.879Z,11.83
2019-03-15T03:50:24.309Z,12.20
2019-03-15T03:53:05.093Z,15.37
2019-03-15T03:55:45.710Z,13.53
2019-03-15T03:58:27.047Z,11.50
2019-03-15T04:00:56.045Z,8.20
2019-03-15T04:03:25.045Z,13.03
2019-03-15T04:06:13.426Z,13.77
2019-03-15T04:09:01.461Z,13.17
2019-03-15T04:11:55.255Z,10.67
2019-03-15T04:14:39.405Z,14.43
2019-03-15T04:17:27.586Z,10.20
2019-03-15T04:20:15.765Z,13.97
2019-03-15T04:22:56.569Z,14.97
2019-03-15T04:25:40.437Z,9.93
2019-03-15T04:28:19.854Z,14.37
2019-03-15T04:31:00.700Z,15.47
2019-03-15T04:33:41.137Z,13.03
2019-03-15T04:36:21.979Z,14.40
2019-03-15T04:39:02.621Z,12.17
2019-03-15T04:41:43.959Z,13.07
2019-03-15T04:44:24.499Z,13.30
2019-03-15T04:47:05.253Z,11.87
2019-03-15T04:49:46.574Z,11.20
2019-03-15T04:52:27.218Z,15.70
2019-03-15T04:55:08.075Z,16.07
2019-03-15T04:57:49.361Z,9.17
2019-03-15T05:00:30.311Z,8.40
2019-03-15T05:03:10.934Z,13.17
2019-03-15T05:06:02.575Z,12.47
2019-03-15T05:08:34.788Z,20.37
2019-03-15T05:11:15.586Z,21.10
2019-03-15T05:13:58.877Z,23.70
2019-03-15T05:16:39.261Z,26.67
2019-03-15T05:22:02.590Z,42.97
2019-03-15T05:24:43.088Z,28.10
2019-03-15T05:27:24.410Z,30.83
2019-03-15T05:30:05.017Z,28.63
2019-03-15T05:32:46.074Z,35.33
2019-03-15T05:35:27.106Z,22.30
2019-03-15T05:38:07.789Z,13.53
2019-03-15T05:40:48.725Z,15.60
2019-03-15T05:43:29.306Z,21.37
2019-03-15T05:46:10.029Z,22.67
2019-03-15T05:48:51.341Z,20.40
2019-03-15T05:51:31.851Z,25.53
2019-03-15T05:54:12.567Z,22.33
2019-03-15T05:56:53.273Z,17.67
2019-03-15T05:59:33.895Z,21.40
2019-03-15T06:02:14.325Z,15.47
2019-03-15T06:04:43.302Z,22.17
2019-03-15T06:07:31.428Z,21.37
2019-03-15T06:10:19.565Z,17.13
2019-03-15T06:13:07.677Z,15.33
2019-03-15T06:15:55.812Z,10.60
2019-03-15T06:18:43.868Z,15.47
2019-03-15T06:21:31.993Z,9.13
2019-03-15T06:24:20.066Z,10.47
2019-03-15T06:27:08.150Z,8.60
2019-03-15T06:29:49.425Z,11.57
2019-03-15T06:32:18.348Z,15.17
2019-03-15T06:35:06.555Z,13.00
2019-03-15T06:37:54.715Z,10.40
2019-03-15T06:40:42.864Z,13.87
2019-03-15T06:43:13.285Z,16.47
2019-03-15T06:46:15.879Z,12.73
2019-03-15T06:48:51.465Z,14.57
2019-03-15T06:51:39.505Z,12.33
2019-03-15T06:54:27.644Z,13.87
2019-03-15T06:57:15.718Z,13.27
2019-03-15T07:00:03.962Z,14.57
2019-03-15T07:03:04.247Z,12.17
2019-03-15T07:05:42.110Z,13.90
2019-03-15T07:11:05.380Z,12.27
2019-03-15T07:13:53.534Z,8.27
2019-03-15T07:19:35.258Z,12.70
2019-03-15T07:22:23.403Z,11.13
2019-03-15T07:25:11.581Z,13.17
2019-03-15T07:28:00.402Z,9.63
2019-03-15T07:30:48.480Z,8.90
2019-03-15T07:36:31.893Z,15.77
2019-03-15T07:39:20.034Z,13.20
2019-03-15T07:42:08.235Z,12.83
2019-03-15T07:44:56.426Z,13.53
2019-03-15T07:48:21.735Z,15.70
2019-03-15T07:53:55.897Z,13.13
2019-03-15T07:57:20.473Z,14.97
2019-03-15T07:59:58.471Z,10.50
2019-03-15T08:02:27.372Z,14.07
2019-03-15T08:05:15.500Z,15.13
2019-03-15T08:08:03.686Z,14.80
2019-03-15T08:10:54.881Z,14.35
2019-03-15T08:13:41.651Z,13.17
2019-03-15T08:16:29.865Z,14.40
2019-03-15T08:19:18.022Z,9.30
2019-03-15T08:24:54.277Z,12.90
2019-03-15T08:27:42.414Z,18.03
2019-03-15T08:30:23.914Z,15.30
2019-03-15T08:33:10.620Z,17.27
2019-03-15T08:35:48.267Z,13.33
2019-03-15T08:38:28.974Z,20.83
2019-03-15T08:41:10.312Z,16.33
2019-03-15T08:43:39.179Z,18.43
2019-03-15T08:46:27.410Z,13.33
2019-03-15T08:49:15.569Z,15.07
2019-03-15T09:02:04.569Z,18.20
2019-03-15T09:08:00.535Z,16.07
2019-03-15T09:10:48.706Z,11.83
2019-03-15T09:13:37.125Z,14.87
2019-03-15T09:16:25.245Z,15.63
2019-03-15T09:19:13.747Z,12.43
2019-03-15T09:22:02.116Z,16.83
2019-03-15T09:24:50.481Z,14.77
2019-03-15T09:27:38.653Z,24.53
2019-03-15T09:30:26.948Z,37.03
2019-03-15T09:33:07.686Z,16.57
2019-03-15T09:35:48.238Z,20.77
2019-03-15T09:38:31.988Z,18.60
2019-03-15T09:41:13.024Z,14.00
2019-03-15T09:43:53.831Z,13.60
2019-03-15T09:46:34.533Z,27.40
2019-03-15T09:49:15.168Z,17.50
2019-03-15T09:51:55.736Z,15.80
2019-03-15T09:54:36.540Z,12.67
2019-03-15T09:57:17.064Z,11.17
2019-03-15T09:59:57.831Z,12.97
2019-03-15T10:02:38.906Z,19.57
2019-03-15T10:05:11.314Z,12.40
2019-03-15T10:07:58.260Z,12.93
2019-03-15T10:10:48.941Z,18.83
2019-03-15T10:13:38.248Z,14.70
2019-03-15T10:16:26.310Z,22.67
2019-03-15T10:18:55.239Z,20.83
2019-03-15T10:21:43.454Z,19.97
2019-03-15T10:24:31.587Z,21.63
2019-03-15T10:27:19.731Z,11.67
2019-03-15T10:30:08.811Z,19.93
2019-03-15T10:32:56.545Z,18.07
2019-03-15T10:35:25.612Z,12.87
2019-03-15T10:37:54.530Z,14.37
2019-03-15T10:40:42.611Z,21.17
2019-03-15T10:43:30.718Z,19.03
2019-03-15T10:45:59.768Z,15.80
2019-03-15T10:48:47.799Z,24.80
2019-03-15T10:51:35.894Z,22.50
2019-03-15T10:54:24.035Z,27.20
2019-03-15T10:56:53.027Z,49.17
2019-03-15T10:59:21.962Z,35.47
2019-03-15T11:02:10.307Z,34.00
2019-03-15T11:04:58.378Z,45.80
2019-03-15T11:07:46.609Z,18.30
2019-03-15T11:10:34.856Z,14.00
2019-03-15T11:13:22.973Z,15.07
2019-03-15T11:16:11.688Z,30.00
2019-03-15T11:19:00.117Z,27.50
2019-03-15T11:21:48.181Z,17.97
2019-03-15T11:24:36.395Z,15.33
2019-03-15T11:27:24.670Z,26.13
2019-03-15T11:30:13.498Z,9.73
2019-03-15T11:33:01.620Z,24.20
2019-03-15T11:35:42.760Z,15.83
2019-03-15T11:38:23.273Z,11.10
2019-03-15T11:41:04.079Z,14.13
2019-03-15T11:43:44.666Z,13.13
2019-03-15T11:46:25.322Z,12.10
2019-03-15T11:48:54.145Z,21.47
2019-03-15T11:51:42.715Z,14.93
2019-03-15T11:54:32.213Z,11.43
2019-03-15T11:57:20.334Z,16.97
2019-03-15T12:00:09.270Z,8.67
2019-03-15T12:02:57.413Z,8.77
2019-03-15T12:05:45.564Z,15.53
2019-03-15T12:08:34.477Z,15.57
2019-03-15T12:11:22.575Z,14.87
2019-03-15T12:14:10.644Z,11.03
2019-03-15T12:16:58.715Z,14.87
2019-03-15T12:19:46.865Z,12.03
2019-03-15T12:22:35.020Z,14.63
2019-03-15T12:25:23.285Z,9.33
2019-03-15T12:28:11.400Z,23.50
2019-03-15T12:30:59.436Z,15.20
2019-03-15T12:33:47.650Z,10.50
2019-03-15T12:36:28.267Z,4.63
2019-03-15T12:39:09.651Z,6.83
2019-03-15T12:41:51.186Z,11.10
2019-03-15T12:44:31.882Z,12.07
2019-03-15T12:47:12.801Z,10.07
2019-03-15T12:49:53.553Z,9.57
2019-03-15T12:52:46.561Z,7.57
2019-03-15T12:55:16.425Z,8.67
2019-03-15T12:57:56.805Z,6.97
2019-03-15T13:00:37.369Z,7.00
2019-03-15T13:03:17.879Z,8.10
2019-03-15T13:05:58.560Z,11.07
2019-03-15T13:08:39.045Z,8.20
2019-03-15T13:11:19.942Z,8.53
2019-03-15T13:14:01.028Z,5.83
2019-03-15T13:16:41.566Z,4.77
2019-03-15T13:19:22.070Z,5.67
2019-03-15T13:22:03.470Z,3.00
2019-03-15T13:24:44.190Z,3.30
2019-03-15T13:27:13.207Z,2.73
2019-03-15T13:29:42.170Z,2.80
2019-03-15T13:32:18.199Z,2.77
2019-03-15T13:35:06.401Z,2.03
2019-03-15T13:40:42.600Z,2.47
2019-03-15T13:43:21.756Z,3.33
2019-03-15T13:46:10.113Z,2.30
2019-03-15T13:48:58.217Z,2.37
2019-03-15T13:51:46.420Z,2.00
2019-03-15T13:54:34.081Z,4.30
2019-03-15T13:57:03.128Z,4.30
2019-03-15T13:59:51.399Z,5.53
2019-03-15T14:02:39.530Z,2.40
2019-03-15T14:05:27.641Z,4.70
2019-03-15T14:08:15.719Z,4.23
2019-03-15T14:11:03.870Z,3.57
2019-03-15T14:13:52.050Z,5.47
2019-03-15T14:16:40.194Z,2.53
2019-03-15T14:19:40.118Z,3.70
2019-03-15T14:22:18.058Z,3.43
2019-03-15T14:25:06.766Z,6.40
2019-03-15T14:27:54.984Z,3.30
2019-03-15T14:30:43.166Z,3.30
2019-03-15T14:33:31.239Z,4.27
2019-03-15T14:36:19.381Z,3.80
2019-03-15T14:39:07.622Z,3.60
2019-03-15T14:41:49.138Z,2.40
2019-03-15T14:44:30.470Z,6.63
2019-03-15T14:47:10.967Z,2.73
2019-03-15T14:49:52.025Z,3.30
2019-03-15T14:52:32.838Z,3.13
2019-03-15T14:55:14.260Z,4.60
2019-03-15T14:57:55.390Z,4.13
2019-03-15T15:00:36.853Z,3.03
2019-03-15T15:03:17.692Z,2.57
2019-03-15T15:09:18.384Z,2.77
2019-03-15T15:11:59.454Z,12.00
2019-03-15T15:14:40.123Z,4.80
2019-03-15T15:20:31.040Z,3.13
2019-03-15T15:23:27.996Z,4.17
2019-03-15T15:33:20.627Z,13.67
2019-03-15T15:36:53.478Z,7.50
2019-03-15T15:39:44.320Z,5.30
2019-03-15T15:42:24.847Z,3.40
2019-03-15T15:48:26.517Z,3.47
2019-03-15T15:51:39.979Z,3.23
2019-03-15T15:59:38.324Z,4.53
2019-03-15T16:02:20.901Z,4.87
2019-03-15T16:05:01.869Z,3.43
2019-03-15T16:07:43.155Z,4.17
2019-03-15T16:10:23.801Z,4.03
2019-03-15T16:13:16.509Z,9.27
2019-03-15T16:15:35.135Z,4.97
2019-03-15T16:18:04.192Z,3.27
2019-03-15T16:20:52.380Z,7.73
2019-03-15T16:23:40.490Z,4.00
2019-03-15T16:26:28.552Z,8.40
2019-03-15T16:29:16.605Z,7.80
2019-03-15T16:32:04.776Z,9.33
2019-03-15T16:34:52.989Z,13.87
2019-03-15T16:37:41.097Z,11.60
2019-03-15T16:40:29.227Z,12.77
2019-03-15T16:43:10.097Z,12.20
2019-03-15T16:45:50.855Z,9.40
2019-03-15T16:48:32.091Z,5.03
2019-03-15T16:51:00.968Z,5.50
2019-03-15T16:53:49.132Z,5.13
2019-03-15T16:56:37.269Z,11.33
2019-03-15T16:59:25.518Z,8.13
2019-03-15T17:02:13.625Z,7.20
2019-03-15T17:07:38.984Z,5.90
2019-03-15T17:10:27.156Z,4.20
2019-03-15T17:13:15.321Z,4.13
2019-03-15T17:16:03.678Z,2.43
2019-03-15T17:18:53.522Z,4.50
2019-03-15T17:21:50.028Z,3.90
2019-03-15T17:24:38.389Z,4.90
2019-03-15T17:27:26.624Z,3.63
2019-03-15T17:30:14.831Z,3.10
2019-03-15T17:33:06.043Z,4.23
2019-03-15T17:35:52.813Z,8.03
2019-03-15T17:38:41.013Z,3.97
2019-03-15T17:41:29.135Z,3.47
2019-03-15T17:44:17.346Z,6.73
2019-03-15T17:47:06.798Z,6.10
2019-03-15T17:53:06.370Z,3.43
2019-03-15T17:55:54.663Z,4.27
2019-03-15T18:02:08.849Z,7.13
2019-03-15T18:05:21.014Z,3.33
2019-03-15T18:08:09.154Z,5.63
2019-03-15T18:10:57.279Z,4.97
2019-03-15T18:13:45.607Z,7.77
2019-03-15T18:16:33.774Z,4.17
2019-03-15T18:19:22.299Z,2.33
2019-03-15T18:22:10.526Z,3.40
2019-03-15T18:24:58.872Z,5.27
2019-03-15T18:27:47.039Z,4.77
2019-03-15T18:30:35.228Z,9.23
2019-03-15T18:33:23.599Z,2.20
2019-03-15T18:36:11.775Z,8.17
2019-03-15T18:39:00.566Z,13.03
2019-03-15T18:41:50.604Z,22.57
2019-03-15T18:44:38.488Z,4.10
2019-03-15T18:47:19.462Z,8.33
2019-03-15T18:49:59.829Z,3.70
2019-03-15T18:52:40.573Z,9.53
2019-03-15T18:55:21.901Z,8.53
2019-03-15T18:58:02.616Z,4.67
2019-03-15T19:00:44.017Z,3.47
2019-03-15T19:03:13.067Z,2.77
2019-03-15T19:06:01.172Z,4.73
2019-03-15T19:08:49.321Z,5.50
2019-03-15T19:11:36.952Z,3.63
2019-03-15T19:14:25.157Z,5.10
2019-03-15T19:17:13.276Z,8.53
2019-03-15T19:20:01.498Z,8.20
2019-03-15T19:22:49.710Z,4.43
2019-03-15T19:25:38.006Z,5.93
2019-03-15T19:28:26.160Z,3.67
2019-03-15T19:31:16.906Z,3.80
2019-03-15T19:34:05.062Z,5.93
2019-03-15T19:36:53.209Z,6.80
2019-03-15T19:39:41.355Z,4.33
2019-03-15T19:42:11.003Z,7.10
2019-03-15T19:44:39.996Z,5.73
2019-03-15T19:47:20.879Z,6.50
2019-03-15T19:50:01.385Z,7.97
2019-03-15T19:52:44.442Z,4.63
2019-03-15T19:55:25.495Z,4.27
2019-03-15T19:58:06.639Z,3.10
2019-03-15T20:00:47.773Z,5.80
2019-03-15T20:03:43.358Z,5.37
2019-03-15T20:06:12.729Z,4.60
2019-03-15T20:08:53.455Z,3.43
2019-03-15T20:11:35.107Z,5.17
2019-03-15T20:14:16.395Z,3.27
2019-03-15T20:16:57.361Z,3.73
2019-03-15T20:19:38.383Z,3.40
2019-03-15T20:22:21.195Z,4.37
2019-03-15T20:25:02.512Z,6.50
2019-03-15T20:27:42.951Z,4.73
2019-03-15T20:30:26.678Z,4.73
2019-03-15T20:33:07.285Z,6.17
2019-03-15T20:36:13.037Z,4.33
2019-03-15T20:39:00.950Z,5.30
2019-03-15T20:41:42.666Z,6.33
2019-03-15T20:44:28.756Z,4.50
2019-03-15T20:47:06.258Z,4.97
2019-03-15T20:49:46.942Z,5.10
2019-03-15T20:52:27.497Z,6.63
2019-03-15T20:55:08.733Z,8.00
2019-03-15T20:57:49.560Z,4.10
2019-03-15T21:00:36.035Z,4.90
2019-03-15T21:03:12.866Z,5.40
2019-03-15T21:05:53.398Z,3.60
2019-03-15T21:08:34.105Z,5.10
2019-03-15T21:11:15.430Z,6.13
2019-03-15T21:13:55.914Z,9.90
2019-03-15T21:16:36.423Z,7.40
2019-03-15T21:19:17.571Z,8.50
2019-03-15T21:21:58.669Z,10.07
2019-03-15T21:24:39.455Z,5.50
2019-03-15T21:27:20.064Z,6.13
2019-03-15T21:30:00.680Z,5.47
2019-03-15T21:32:41.444Z,8.60
2019-03-15T21:35:22.658Z,7.63
2019-03-15T21:40:58.919Z,5.10
2019-03-15T21:43:47.111Z,8.30
2019-03-15T21:46:35.267Z,9.80
2019-03-15T21:49:23.376Z,10.87
2019-03-15T21:52:04.796Z,9.70
2019-03-15T21:54:45.624Z,7.13
2019-03-15T21:57:26.613Z,4.07
2019-03-15T22:00:07.189Z,4.13
2019-03-15T22:02:48.605Z,3.60
2019-03-15T22:05:29.811Z,4.80
2019-03-15T22:08:11.081Z,5.00
2019-03-15T22:10:51.641Z,6.37
2019-03-15T22:13:32.477Z,2.03
2019-03-15T22:16:13.171Z,4.87
2019-03-15T22:18:53.929Z,3.87
2019-03-15T22:21:34.797Z,5.60
2019-03-15T22:24:15.630Z,3.93
2019-03-15T22:26:56.556Z,6.70
2019-03-15T22:29:38.674Z,3.70
2019-03-15T22:32:20.116Z,5.13
2019-03-15T22:34:49.068Z,5.13
2019-03-15T22:37:37.261Z,5.70
2019-03-15T22:40:25.489Z,4.73
2019-03-15T22:43:13.705Z,5.83
2019-03-15T22:46:01.810Z,4.03
2019-03-15T22:48:50.952Z,5.10
2019-03-15T22:51:39.289Z,6.37
2019-03-15T22:54:20.495Z,4.50
2019-03-15T22:57:01.001Z,6.33
2019-03-15T22:59:41.832Z,2.10
2019-03-15T23:02:22.527Z,3.77
2019-03-15T23:04:51.541Z,9.43
2019-03-15T23:07:20.428Z,6.43
2019-03-15T23:09:49.276Z,9.17
2019-03-15T23:12:18.117Z,7.07
2019-03-15T23:14:46.960Z,8.30
2019-03-15T23:17:15.750Z,9.83
2019-03-15T23:19:44.557Z,3.53
2019-03-15T23:22:16.602Z,7.30
2019-03-15T23:24:45.425Z,3.70
2019-03-15T23:27:14.422Z,5.20
2019-03-15T23:29:43.220Z,4.47
2019-03-15T23:32:12.036Z,10.27
2019-03-15T23:34:40.858Z,8.47
2019-03-15T23:37:09.695Z,6.07
2019-03-15T23:39:38.561Z,6.93
2019-03-15T23:42:09.746Z,6.77
2019-03-15T23:44:38.925Z,8.23
2019-03-15T23:47:07.857Z,7.80
2019-03-15T23:49:36.720Z,9.83
2019-03-15T23:52:05.658Z,6.30
2019-03-15T23:54:34.526Z,8.27
2019-03-15T23:57:03.340Z,5.17
2019-03-15T23:59:32.230Z,7.10
